Time;durP1;ratioP1;P1;durP2;ratioP2;P2;SDS_P1;SDS_P2;PMS_P1;PMS_P2;Temp;Humidity;BMP_temperature;BMP_pressure;BME280_temperature;BME280_humidity;BME280_pressure;Samples;Min_cycle;Max_cycle;Signal;HPM_P1;HPM_P2
2024/05/01 00:01:49;;;;;;;;;;;15.50;99.90;;;;;;5351894;26;20006;-67
2024/05/01 00:04:15;;;;;;;;;;;15.50;99.90;;;;;;5363784;26;20361;-68
2024/05/01 00:06:40;;;;;;;;;;;15.40;99.90;;;;;;5363050;26;19999;-67
2024/05/01 00:09:06;;;;;;;;;;;15.40;99.90;;;;;;5359576;26;19941;-67
2024/05/01 00:11:31;;;;;;;;;;;15.40;99.90;;;;;;5363254;26;19938;-67
2024/05/01 00:13:57;;;;;;;;;;;15.30;99.90;;;;;;5357238;26;19925;-67
2024/05/01 00:16:22;;;;;;;;;;;15.30;99.90;;;;;;5353878;26;19933;-67
2024/05/01 00:18:48;;;;;;;;;;;15.30;99.90;;;;;;5357512;26;19934;-68
2024/05/01 00:21:13;;;;;;;;;;;15.30;99.90;;;;;;5356496;26;20047;-68
2024/05/01 00:23:38;;;;;;;;;;;15.30;99.90;;;;;;5359339;26;20423;-68
2024/05/01 00:26:04;;;;;;;;;;;15.30;99.90;;;;;;5363002;26;19926;-68
2024/05/01 00:28:29;;;;;;;;;;;15.20;99.90;;;;;;5357390;26;19933;-67
2024/05/01 00:30:55;;;;;;;;;;;15.20;99.90;;;;;;5359472;26;19925;-68
2024/05/01 00:33:20;;;;;;;;;;;15.20;99.90;;;;;;5353515;26;19933;-67
2024/05/01 00:35:46;;;;;;;;;;;15.20;99.90;;;;;;5353281;26;20364;-68
2024/05/01 00:38:11;;;;;;;;;;;15.20;99.90;;;;;;5363932;26;19936;-68
2024/05/01 00:40:37;;;;;;;;;;;15.30;99.90;;;;;;5353908;26;19953;-68
2024/05/01 00:43:02;;;;;;;;;;;15.30;99.90;;;;;;5361929;26;19926;-68
2024/05/01 00:45:28;;;;;;;;;;;15.30;99.90;;;;;;5362385;26;20347;-67
2024/05/01 00:47:55;;;;;;;;;;;15.30;99.90;;;;;;5353584;26;20358;-69
2024/05/01 00:50:22;;;;;;;;;;;15.30;99.90;;;;;;5356157;26;19934;-68
2024/05/01 00:52:49;;;;;;;;;;;15.30;99.90;;;;;;5360119;26;20003;-68
2024/05/01 00:55:16;;;;;;;;;;;15.30;99.90;;;;;;5354049;26;19965;-68
2024/05/01 00:57:41;;;;;;;;;;;15.30;99.90;;;;;;5354416;26;20726;-68
2024/05/01 01:00:07;;;;;;;;;;;15.30;99.90;;;;;;5365391;26;20004;-68
2024/05/01 01:02:33;;;;;;;;;;;15.30;99.90;;;;;;5355002;26;19953;-68
2024/05/01 01:04:59;;;;;;;;;;;15.30;99.90;;;;;;5362875;26;19926;-68
2024/05/01 01:07:24;;;;;;;;;;;15.20;99.90;;;;;;5356876;26;19926;-68
2024/05/01 01:09:50;;;;;;;;;;;15.20;99.90;;;;;;5352832;26;19932;-68
2024/05/01 01:12:22;;;;;;;;;;;15.10;99.90;;;;;;5357765;26;19926;-68
2024/05/01 01:14:47;;;;;;;;;;;15.10;99.90;;;;;;5359440;26;19953;-68
2024/05/01 01:17:13;;;;;;;;;;;15.10;99.90;;;;;;5354944;26;19933;-68
2024/05/01 01:19:39;;;;;;;;;;;15.10;99.90;;;;;;5360486;26;19944;-68
2024/05/01 01:22:04;;;;;;;;;;;15.00;99.90;;;;;;5358963;26;19926;-68
2024/05/01 01:24:30;;;;;;;;;;;15.00;99.90;;;;;;5351314;26;19934;-68
2024/05/01 01:26:55;;;;;;;;;;;14.90;99.90;;;;;;5359731;26;19926;-69
2024/05/01 01:29:21;;;;;;;;;;;14.90;99.90;;;;;;5361657;26;19941;-68
2024/05/01 01:31:46;;;;;;;;;;;14.90;99.90;;;;;;5360332;26;20382;-69
2024/05/01 01:34:12;;;;;;;;;;;14.90;99.90;;;;;;5356722;26;19932;-68
2024/05/01 01:36:37;;;;;;;;;;;14.80;99.90;;;;;;5352671;26;19925;-68
2024/05/01 01:39:03;;;;;;;;;;;14.90;99.90;;;;;;5350875;26;19995;-67
2024/05/01 01:41:28;;;;;;;;;;;14.90;99.90;;;;;;5359650;26;19941;-67
2024/05/01 01:43:55;;;;;;;;;;;14.90;99.90;;;;;;5354769;26;19925;-68
2024/05/01 01:46:21;;;;;;;;;;;14.90;99.90;;;;;;5361270;26;19932;-68
2024/05/01 01:48:46;;;;;;;;;;;14.90;99.90;;;;;;5359391;26;19933;-68
2024/05/01 01:51:12;;;;;;;;;;;14.90;99.90;;;;;;5366780;26;19925;-67
2024/05/01 01:53:37;;;;;;;;;;;14.90;99.90;;;;;;5355937;26;21243;-67
2024/05/01 01:56:06;;;;;;;;;;;14.90;99.90;;;;;;5361277;26;20750;-67
2024/05/01 01:58:31;;;;;;;;;;;14.80;99.90;;;;;;5357927;26;20362;-67
2024/05/01 02:00:57;;;;;;;;;;;14.90;99.90;;;;;;5361347;26;19933;-68
2024/05/01 02:03:22;;;;;;;;;;;14.80;99.90;;;;;;5361125;26;19925;-67
2024/05/01 02:05:48;;;;;;;;;;;14.80;99.90;;;;;;5363098;26;20356;-68
2024/05/01 02:08:13;;;;;;;;;;;14.90;99.90;;;;;;5359293;26;19934;-67
2024/05/01 02:10:39;;;;;;;;;;;14.90;99.90;;;;;;5358136;26;19981;-68
2024/05/01 02:13:04;;;;;;;;;;;15.00;99.90;;;;;;5357802;26;19933;-68
2024/05/01 02:15:30;;;;;;;;;;;15.00;99.90;;;;;;5361616;26;19933;-68
2024/05/01 02:17:55;;;;;;;;;;;15.10;99.90;;;;;;5359825;26;19933;-68
2024/05/01 02:20:20;;;;;;;;;;;15.10;99.90;;;;;;5357229;26;19934;-68
2024/05/01 02:22:46;;;;;;;;;;;15.10;99.90;;;;;;5367504;26;20056;-68
2024/05/01 02:25:11;;;;;;;;;;;15.10;99.90;;;;;;5364984;26;19953;-68
2024/05/01 02:27:37;;;;;;;;;;;15.20;99.90;;;;;;5359442;26;19945;-68
2024/05/01 02:30:02;;;;;;;;;;;15.20;99.90;;;;;;5362388;26;19943;-67
2024/05/01 02:32:28;;;;;;;;;;;15.20;99.90;;;;;;5364110;26;19934;-67
2024/05/01 02:34:53;;;;;;;;;;;15.30;99.90;;;;;;5365532;26;20123;-68
2024/05/01 02:37:19;;;;;;;;;;;15.30;99.90;;;;;;5357953;26;19995;-68
2024/05/01 02:39:44;;;;;;;;;;;15.40;99.90;;;;;;5363451;26;20320;-68
2024/05/01 02:42:10;;;;;;;;;;;15.40;99.90;;;;;;5358403;26;19941;-68
2024/05/01 02:44:35;;;;;;;;;;;15.40;99.90;;;;;;5360871;26;20290;-68
2024/05/01 02:47:01;;;;;;;;;;;15.40;99.90;;;;;;5356457;26;20046;-68
2024/05/01 02:49:26;;;;;;;;;;;15.40;99.90;;;;;;5360827;26;19926;-68
2024/05/01 02:51:52;;;;;;;;;;;15.40;99.90;;;;;;5362199;26;20008;-69
2024/05/01 02:54:17;;;;;;;;;;;15.40;99.90;;;;;;5363664;26;19933;-68
2024/05/01 02:56:42;;;;;;;;;;;15.40;99.90;;;;;;5362132;26;19933;-68
2024/05/01 02:59:08;;;;;;;;;;;15.40;99.90;;;;;;5362165;26;20030;-68
2024/05/01 03:01:34;;;;;;;;;;;15.40;99.90;;;;;;5364673;26;20340;-68
2024/05/01 03:04:02;;;;;;;;;;;15.40;99.90;;;;;;5357075;26;19943;-68
2024/05/01 03:06:28;;;;;;;;;;;15.40;99.90;;;;;;5358590;26;19962;-69
2024/05/01 03:08:54;;;;;;;;;;;15.40;99.90;;;;;;5360304;26;20047;-68
2024/05/01 03:11:19;;;;;;;;;;;15.50;99.90;;;;;;5357855;26;20284;-68
2024/05/01 03:13:45;;;;;;;;;;;15.50;99.90;;;;;;5383872;26;19958;-68
2024/05/01 03:16:10;;;;;;;;;;;15.60;99.90;;;;;;5358881;26;20795;-68
2024/05/01 03:18:39;;;;;;;;;;;15.60;99.90;;;;;;5357780;26;19962;-68
2024/05/01 03:21:04;;;;;;;;;;;15.60;99.90;;;;;;5355528;26;19932;-68
2024/05/01 03:23:30;;;;;;;;;;;15.60;99.90;;;;;;5361778;26;19925;-68
2024/05/01 03:25:57;;;;;;;;;;;15.60;99.90;;;;;;5358947;26;19963;-68
2024/05/01 03:28:23;;;;;;;;;;;15.60;99.90;;;;;;5362676;26;19932;-67
2024/05/01 03:30:48;;;;;;;;;;;15.60;99.90;;;;;;5358492;26;19926;-67
2024/05/01 03:33:13;;;;;;;;;;;15.60;99.90;;;;;;5365194;26;19971;-68
2024/05/01 03:35:39;;;;;;;;;;;15.60;99.90;;;;;;5354543;26;19938;-67
2024/05/01 03:38:04;;;;;;;;;;;15.70;99.90;;;;;;5361529;26;19940;-67
2024/05/01 03:40:30;;;;;;;;;;;15.70;99.90;;;;;;5354847;26;19926;-68
2024/05/01 03:42:56;;;;;;;;;;;15.70;99.90;;;;;;5365350;26;19950;-68
2024/05/01 03:45:21;;;;;;;;;;;15.70;99.90;;;;;;5352317;26;19941;-68
2024/05/01 03:47:46;;;;;;;;;;;15.70;99.90;;;;;;5357717;26;20246;-68
2024/05/01 03:50:12;;;;;;;;;;;15.70;99.90;;;;;;5361268;26;19925;-68
2024/05/01 03:52:37;;;;;;;;;;;15.60;99.90;;;;;;5361606;26;19926;-68
2024/05/01 03:55:03;;;;;;;;;;;15.60;99.90;;;;;;5362445;26;19937;-67
2024/05/01 03:57:29;;;;;;;;;;;15.50;99.90;;;;;;5361315;26;19925;-68
2024/05/01 03:59:54;;;;;;;;;;;15.50;99.90;;;;;;5353228;26;19925;-68
2024/05/01 04:02:20;;;;;;;;;;;15.50;99.90;;;;;;5356115;26;20261;-67
2024/05/01 04:04:45;;;;;;;;;;;15.50;99.90;;;;;;5361144;26;19934;-67
2024/05/01 04:07:15;;;;;;;;;;;15.50;99.90;;;;;;5359133;26;19926;-68
2024/05/01 04:09:42;;;;;;;;;;;15.40;99.90;;;;;;5363118;26;19933;-67
2024/05/01 04:12:07;;;;;;;;;;;15.30;99.90;;;;;;5362446;26;19933;-68
2024/05/01 04:14:33;;;;;;;;;;;15.30;99.90;;;;;;5352847;26;20734;-68
2024/05/01 04:16:58;;;;;;;;;;;15.20;99.90;;;;;;5350868;26;19925;-67
2024/05/01 04:19:24;;;;;;;;;;;15.20;99.90;;;;;;5352976;26;19933;-69
2024/05/01 04:21:49;;;;;;;;;;;15.10;99.90;;;;;;5352455;26;20244;-68
2024/05/01 04:24:15;;;;;;;;;;;15.00;99.90;;;;;;5349880;26;19925;-68
2024/05/01 04:26:40;;;;;;;;;;;15.00;99.90;;;;;;5358878;26;20085;-67
2024/05/01 04:29:06;;;;;;;;;;;15.00;99.90;;;;;;5357901;26;19926;-68
2024/05/01 04:31:31;;;;;;;;;;;15.00;99.90;;;;;;5356811;26;19933;-68
2024/05/01 04:33:57;;;;;;;;;;;15.00;99.90;;;;;;5364386;26;19940;-68
2024/05/01 04:36:22;;;;;;;;;;;15.00;99.90;;;;;;5355739;26;19938;-68
2024/05/01 04:38:47;;;;;;;;;;;15.10;99.90;;;;;;5353684;26;19929;-68
2024/05/01 04:41:14;;;;;;;;;;;15.10;99.90;;;;;;5358006;26;19932;-68
2024/05/01 04:43:39;;;;;;;;;;;15.10;99.90;;;;;;5365878;26;20006;-68
2024/05/01 04:46:05;;;;;;;;;;;15.10;99.90;;;;;;5366023;26;19926;-68
2024/05/01 04:48:30;;;;;;;;;;;15.10;99.90;;;;;;5355857;26;19941;-67
2024/05/01 04:50:56;;;;;;;;;;;15.20;99.90;;;;;;5355366;26;20352;-67
2024/05/01 04:53:22;;;;;;;;;;;15.20;99.90;;;;;;5364067;26;19929;-68
2024/05/01 04:55:47;;;;;;;;;;;15.20;99.90;;;;;;5360221;26;20564;-68
2024/05/01 04:58:13;;;;;;;;;;;15.20;99.90;;;;;;5365088;26;19945;-67
2024/05/01 05:00:39;;;;;;;;;;;15.30;99.90;;;;;;5346801;26;19997;-69
2024/05/01 05:03:04;;;;;;;;;;;15.30;99.90;;;;;;5356542;26;20364;-68
2024/05/01 05:05:30;;;;;;;;;;;15.40;99.90;;;;;;5365280;26;19938;-69
2024/05/01 05:07:57;;;;;;;;;;;15.40;99.90;;;;;;5361531;26;19926;-68
2024/05/01 05:10:23;;;;;;;;;;;15.40;99.90;;;;;;5361052;26;19926;-69
2024/05/01 05:12:48;;;;;;;;;;;15.40;99.90;;;;;;5359913;26;20402;-68
2024/05/01 05:15:14;;;;;;;;;;;15.40;99.90;;;;;;5357835;26;19925;-69
2024/05/01 05:17:39;;;;;;;;;;;15.40;99.90;;;;;;5356329;26;19933;-68
2024/05/01 05:20:05;;;;;;;;;;;15.50;99.90;;;;;;5349350;26;20905;-69
2024/05/01 05:22:31;;;;;;;;;;;15.50;99.90;;;;;;5354906;26;19945;-68
2024/05/01 05:24:56;;;;;;;;;;;15.50;99.90;;;;;;5363961;26;19925;-68
2024/05/01 05:27:23;;;;;;;;;;;15.60;99.90;;;;;;5356303;26;19937;-68
2024/05/01 05:29:48;;;;;;;;;;;15.60;99.90;;;;;;5357947;26;19937;-67
2024/05/01 05:32:14;;;;;;;;;;;15.70;99.90;;;;;;5349602;26;20381;-69
2024/05/01 05:34:39;;;;;;;;;;;15.70;99.90;;;;;;5360598;26;19944;-67
2024/05/01 05:37:05;;;;;;;;;;;15.80;99.90;;;;;;5356344;26;19941;-67
2024/05/01 05:39:30;;;;;;;;;;;15.80;99.90;;;;;;5357238;26;20292;-67
2024/05/01 05:41:56;;;;;;;;;;;15.80;99.90;;;;;;5357744;26;19933;-67
2024/05/01 05:44:22;;;;;;;;;;;16.00;99.90;;;;;;5364406;26;21448;-68
2024/05/01 05:46:47;;;;;;;;;;;15.90;99.90;;;;;;5359991;26;19932;-68
2024/05/01 05:49:12;;;;;;;;;;;16.00;99.90;;;;;;5360576;26;19925;-68
2024/05/01 05:51:41;;;;;;;;;;;16.00;99.90;;;;;;5359308;26;20349;-67
2024/05/01 05:54:07;;;;;;;;;;;16.10;99.90;;;;;;5358525;26;20003;-68
2024/05/01 05:56:32;;;;;;;;;;;16.20;99.90;;;;;;5361362;26;19941;-67
2024/05/01 05:58:58;;;;;;;;;;;16.30;99.90;;;;;;5358854;26;19925;-67
2024/05/01 06:01:23;;;;;;;;;;;16.30;99.90;;;;;;5363462;26;20441;-67
2024/05/01 06:03:49;;;;;;;;;;;16.30;99.90;;;;;;5376694;26;19925;-67
2024/05/01 06:06:14;;;;;;;;;;;16.40;99.90;;;;;;5360584;26;20398;-67
2024/05/01 06:08:40;;;;;;;;;;;16.40;99.90;;;;;;5362863;26;19949;-68
2024/05/01 06:11:06;;;;;;;;;;;16.50;99.90;;;;;;5359226;26;19926;-68
2024/05/01 06:13:31;;;;;;;;;;;16.60;99.90;;;;;;5361397;26;19933;-68
2024/05/01 06:15:57;;;;;;;;;;;16.70;99.90;;;;;;5368007;26;19925;-69
2024/05/01 06:18:22;;;;;;;;;;;16.70;99.90;;;;;;5362896;26;20567;-68
2024/05/01 06:20:48;;;;;;;;;;;16.90;99.90;;;;;;5355275;26;19925;-67
2024/05/01 06:23:13;;;;;;;;;;;17.00;99.90;;;;;;5358485;26;20279;-66
2024/05/01 06:25:39;;;;;;;;;;;17.10;99.90;;;;;;5363568;26;20372;-67
2024/05/01 06:28:04;;;;;;;;;;;17.20;99.90;;;;;;5364829;26;19946;-66
2024/05/01 06:30:30;;;;;;;;;;;17.30;99.90;;;;;;5359824;26;20270;-66
2024/05/01 06:32:56;;;;;;;;;;;17.50;99.90;;;;;;5358177;26;20382;-68
2024/05/01 06:35:22;;;;;;;;;;;17.60;99.90;;;;;;5351610;26;19934;-67
2024/05/01 06:37:47;;;;;;;;;;;17.70;99.90;;;;;;5360747;26;20503;-67
2024/05/01 06:40:13;;;;;;;;;;;17.80;99.90;;;;;;5361909;26;19925;-69
2024/05/01 06:42:38;;;;;;;;;;;17.90;99.90;;;;;;5360755;26;19932;-67
2024/05/01 06:45:04;;;;;;;;;;;18.00;99.90;;;;;;5357412;26;19926;-69
2024/05/01 06:47:29;;;;;;;;;;;18.20;99.90;;;;;;5365308;26;19952;-68
2024/05/01 06:49:55;;;;;;;;;;;18.40;99.90;;;;;;5362724;26;19938;-67
2024/05/01 06:52:20;;;;;;;;;;;18.60;99.90;;;;;;5362377;26;20359;-67
2024/05/01 06:54:46;;;;;;;;;;;18.60;99.90;;;;;;5357611;26;19933;-67
2024/05/01 06:57:11;;;;;;;;;;;18.80;99.90;;;;;;5368649;26;20348;-67
2024/05/01 06:59:37;;;;;;;;;;;18.80;99.90;;;;;;5360905;26;19958;-66
2024/05/01 07:02:02;;;;;;;;;;;19.00;99.90;;;;;;5355311;26;20303;-66
2024/05/01 07:04:28;;;;;;;;;;;19.20;99.90;;;;;;5366345;26;19940;-66
2024/05/01 07:06:53;;;;;;;;;;;19.30;99.90;;;;;;5364191;26;19926;-66
2024/05/01 07:09:19;;;;;;;;;;;19.40;99.90;;;;;;5363853;26;20022;-66
2024/05/01 07:11:44;;;;;;;;;;;19.60;99.90;;;;;;5363844;26;19933;-67
2024/05/01 07:14:10;;;;;;;;;;;19.80;99.90;;;;;;5369670;26;20356;-67
2024/05/01 07:16:35;;;;;;;;;;;19.90;99.90;;;;;;5360832;26;20359;-69
2024/05/01 07:19:01;;;;;;;;;;;20.10;99.90;;;;;;5360641;26;19926;-69
2024/05/01 07:21:26;;;;;;;;;;;20.20;99.90;;;;;;5367626;26;19933;-68
2024/05/01 07:23:52;;;;;;;;;;;20.40;99.90;;;;;;5359298;26;19933;-69
2024/05/01 07:26:17;;;;;;;;;;;20.60;99.90;;;;;;5358248;26;19925;-68
2024/05/01 07:28:43;;;;;;;;;;;20.70;99.90;;;;;;5355774;26;20344;-69
2024/05/01 07:31:09;;;;;;;;;;;20.80;99.90;;;;;;5351171;26;19934;-69
2024/05/01 07:33:34;;;;;;;;;;;20.80;99.90;;;;;;5360745;26;19940;-69
2024/05/01 07:36:00;;;;;;;;;;;21.00;99.90;;;;;;5360464;26;20287;-68
2024/05/01 07:38:25;;;;;;;;;;;21.10;99.90;;;;;;5344464;26;19926;-67
2024/05/01 07:40:51;;;;;;;;;;;21.30;99.90;;;;;;5356133;26;19929;-68
2024/05/01 07:43:17;;;;;;;;;;;21.40;99.90;;;;;;5344502;26;19962;-67
2024/05/01 07:45:43;;;;;;;;;;;21.50;99.90;;;;;;5368999;26;20446;-68
2024/05/01 07:48:09;;;;;;;;;;;21.50;99.90;;;;;;5365998;26;20429;-68
2024/05/01 07:50:34;;;;;;;;;;;21.50;99.90;;;;;;5346113;26;19933;-67
2024/05/01 07:53:00;;;;;;;;;;;21.50;99.90;;;;;;5331370;26;20369;-67
2024/05/01 07:55:25;;;;;;;;;;;21.50;99.90;;;;;;5340999;26;19957;-68
2024/05/01 07:57:51;;;;;;;;;;;21.70;99.90;;;;;;5353354;26;19933;-67
2024/05/01 08:00:16;;;;;;;;;;;21.80;99.90;;;;;;5357985;26;20299;-68
2024/05/01 08:02:42;;;;;;;;;;;21.90;99.90;;;;;;5355464;26;19926;-67
2024/05/01 08:05:07;;;;;;;;;;;22.00;99.90;;;;;;5361354;26;19937;-67
2024/05/01 08:07:33;;;;;;;;;;;22.10;99.90;;;;;;5358205;26;19996;-68
2024/05/01 08:09:58;;;;;;;;;;;22.10;99.90;;;;;;5362102;26;19932;-68
2024/05/01 08:12:24;;;;;;;;;;;22.10;99.90;;;;;;5359241;26;19972;-68
2024/05/01 08:14:52;;;;;;;;;;;22.20;99.90;;;;;;5368707;26;20345;-67
2024/05/01 08:17:21;;;;;;;;;;;22.40;99.90;;;;;;5361128;26;20355;-67
2024/05/01 08:19:47;;;;;;;;;;;22.40;99.90;;;;;;5379680;26;19926;-68
2024/05/01 08:22:12;;;;;;;;;;;22.60;99.90;;;;;;5359805;26;19974;-67
2024/05/01 08:24:38;;;;;;;;;;;22.60;99.90;;;;;;5357055;26;19946;-68
2024/05/01 08:27:03;;;;;;;;;;;22.70;99.90;;;;;;5359366;26;19933;-68
2024/05/01 08:29:29;;;;;;;;;;;22.80;99.90;;;;;;5356163;26;19933;-68
2024/05/01 08:31:54;;;;;;;;;;;22.90;99.90;;;;;;5356848;26;21874;-68
2024/05/01 08:34:20;;;;;;;;;;;22.80;99.90;;;;;;5358890;26;19981;-68
2024/05/01 08:36:45;;;;;;;;;;;22.90;99.90;;;;;;5354394;26;19925;-70
2024/05/01 08:39:11;;;;;;;;;;;22.90;99.90;;;;;;5366778;26;19925;-68
2024/05/01 08:41:42;;;;;;;;;;;22.90;99.90;;;;;;5355737;26;19926;-69
2024/05/01 08:44:10;;;;;;;;;;;23.00;99.90;;;;;;5356959;26;19933;-68
2024/05/01 08:46:40;;;;;;;;;;;23.10;99.90;;;;;;5359602;26;20003;-68
2024/05/01 08:49:07;;;;;;;;;;;23.10;99.90;;;;;;5358313;26;19934;-69
2024/05/01 08:51:36;;;;;;;;;;;23.00;99.90;;;;;;5358672;26;19930;-68
2024/05/01 08:54:02;;;;;;;;;;;23.00;99.90;;;;;;5366126;26;19933;-68
2024/05/01 08:56:31;;;;;;;;;;;23.00;99.90;;;;;;5362905;26;19933;-68
2024/05/01 08:58:57;;;;;;;;;;;23.00;99.90;;;;;;5360478;26;19933;-69
2024/05/01 09:01:23;;;;;;;;;;;23.10;99.90;;;;;;5354625;26;21228;-68
2024/05/01 09:03:49;;;;;;;;;;;23.00;99.90;;;;;;5347393;26;19959;-69
2024/05/01 09:06:18;;;;;;;;;;;23.10;99.90;;;;;;5356484;26;19927;-68
2024/05/01 09:08:44;;;;;;;;;;;23.30;99.90;;;;;;5352962;26;19954;-69
2024/05/01 09:11:09;;;;;;;;;;;23.30;99.90;;;;;;5359393;26;19972;-68
2024/05/01 09:13:35;;;;;;;;;;;23.40;99.90;;;;;;5363215;26;19933;-69
2024/05/01 09:16:04;;;;;;;;;;;23.30;99.90;;;;;;5360131;26;19992;-68
2024/05/01 09:18:30;;;;;;;;;;;23.20;99.90;;;;;;5353023;26;19957;-69
2024/05/01 09:20:56;;;;;;;;;;;23.20;99.90;;;;;;5367555;26;19995;-69
2024/05/01 09:23:21;;;;;;;;;;;23.30;99.90;;;;;;5363028;26;19932;-69
2024/05/01 09:25:47;;;;;;;;;;;23.30;99.90;;;;;;5357476;26;19925;-69
2024/05/01 09:28:12;;;;;;;;;;;23.30;99.90;;;;;;5357313;26;19933;-69
2024/05/01 09:30:42;;;;;;;;;;;23.20;99.90;;;;;;5354356;26;19925;-69
2024/05/01 09:33:07;;;;;;;;;;;23.30;99.90;;;;;;5356380;26;20360;-68
2024/05/01 09:35:33;;;;;;;;;;;23.30;99.90;;;;;;5356298;26;19933;-68
2024/05/01 09:38:01;;;;;;;;;;;23.20;99.90;;;;;;5359760;26;19937;-68
2024/05/01 09:40:30;;;;;;;;;;;23.30;99.90;;;;;;5366514;26;19932;-68
2024/05/01 09:42:59;;;;;;;;;;;23.30;99.90;;;;;;5366878;26;19925;-68
2024/05/01 09:45:25;;;;;;;;;;;23.40;99.90;;;;;;5361352;26;19953;-68
2024/05/01 09:47:54;;;;;;;;;;;23.30;99.90;;;;;;5353187;26;19933;-68
2024/05/01 09:50:19;;;;;;;;;;;23.30;99.90;;;;;;5353971;26;20330;-68
2024/05/01 09:52:46;;;;;;;;;;;23.40;99.90;;;;;;5364304;26;19926;-67
2024/05/01 09:55:12;;;;;;;;;;;23.50;99.90;;;;;;5355296;26;19925;-69
2024/05/01 09:57:38;;;;;;;;;;;23.60;99.90;;;;;;5357946;26;19954;-69
2024/05/01 10:00:05;;;;;;;;;;;23.60;99.90;;;;;;5357752;26;19933;-68
2024/05/01 10:02:31;;;;;;;;;;;23.70;99.90;;;;;;5356212;26;19954;-68
2024/05/01 10:05:01;;;;;;;;;;;23.80;99.90;;;;;;5362545;26;19938;-68
2024/05/01 10:07:41;;;;;;;;;;;23.80;99.90;;;;;;5358826;26;19926;-68
2024/05/01 10:10:10;;;;;;;;;;;23.80;99.90;;;;;;5361864;26;19925;-68
2024/05/01 10:13:11;;;;;;;;;;;23.90;99.90;;;;;;5363002;26;19926;-68
2024/05/01 10:15:39;;;;;;;;;;;23.90;99.90;;;;;;5344617;26;19960;-68
2024/05/01 10:18:05;;;;;;;;;;;23.90;99.90;;;;;;5352665;26;19934;-68
2024/05/01 10:20:31;;;;;;;;;;;24.00;99.90;;;;;;5363646;26;19933;-68
2024/05/01 10:23:17;;;;;;;;;;;24.00;99.90;;;;;;5357353;26;20332;-68
2024/05/01 10:25:50;;;;;;;;;;;24.10;99.90;;;;;;5365537;26;20370;-68
2024/05/01 10:28:17;;;;;;;;;;;24.00;99.90;;;;;;5368439;26;20355;-68
2024/05/01 10:30:44;;;;;;;;;;;24.00;99.90;;;;;;5360626;26;19998;-69
2024/05/01 10:33:09;;;;;;;;;;;24.10;99.90;;;;;;5366131;26;19925;-68
2024/05/01 10:35:35;;;;;;;;;;;24.10;99.90;;;;;;5361388;26;20366;-68
2024/05/01 10:38:01;;;;;;;;;;;24.10;99.90;;;;;;5363212;26;20454;-68
2024/05/01 10:40:33;;;;;;;;;;;24.10;99.90;;;;;;5363792;26;19926;-68
2024/05/01 10:42:58;;;;;;;;;;;24.10;99.90;;;;;;5349323;26;20260;-67
2024/05/01 10:45:24;;;;;;;;;;;24.10;99.90;;;;;;5360053;26;19926;-67
2024/05/01 10:47:49;;;;;;;;;;;24.10;99.90;;;;;;5359383;26;19933;-68
2024/05/01 10:50:15;;;;;;;;;;;24.20;99.90;;;;;;5363590;26;19933;-67
2024/05/01 10:52:40;;;;;;;;;;;24.20;99.90;;;;;;5361221;26;19970;-68
2024/05/01 10:55:06;;;;;;;;;;;24.20;99.90;;;;;;5366738;26;19933;-68
2024/05/01 10:57:31;;;;;;;;;;;24.20;99.90;;;;;;5363171;26;20363;-68
2024/05/01 11:00:00;;;;;;;;;;;24.20;99.90;;;;;;5368080;26;20368;-68
2024/05/01 11:02:26;;;;;;;;;;;24.20;99.90;;;;;;5365240;26;19940;-69
2024/05/01 11:04:52;;;;;;;;;;;24.30;99.90;;;;;;5363386;26;20370;-68
2024/05/01 11:07:17;;;;;;;;;;;24.40;99.90;;;;;;5364434;26;19948;-68
2024/05/01 11:09:43;;;;;;;;;;;24.40;99.90;;;;;;5371556;26;19925;-67
2024/05/01 11:12:08;;;;;;;;;;;24.50;99.90;;;;;;5366513;26;19933;-68
2024/05/01 11:14:34;;;;;;;;;;;24.50;99.90;;;;;;5368047;26;19925;-68
2024/05/01 11:17:00;;;;;;;;;;;24.50;99.90;;;;;;5363700;26;20552;-67
2024/05/01 11:19:26;;;;;;;;;;;24.60;99.90;;;;;;5358116;26;19936;-68
2024/05/01 11:21:51;;;;;;;;;;;24.80;99.90;;;;;;5357806;26;20347;-68
2024/05/01 11:24:17;;;;;;;;;;;24.70;99.90;;;;;;5362621;26;19937;-67
2024/05/01 11:26:43;;;;;;;;;;;24.80;99.90;;;;;;5359934;26;19933;-68
2024/05/01 11:29:09;;;;;;;;;;;24.80;99.90;;;;;;5357920;26;19932;-68
2024/05/01 11:31:34;;;;;;;;;;;24.90;99.90;;;;;;5361221;26;19930;-67
2024/05/01 11:34:00;;;;;;;;;;;24.90;99.90;;;;;;5360762;26;19933;-67
2024/05/01 11:36:25;;;;;;;;;;;25.00;99.90;;;;;;5364261;26;19925;-68
2024/05/01 11:38:51;;;;;;;;;;;25.10;99.90;;;;;;5356352;26;20260;-68
2024/05/01 11:41:16;;;;;;;;;;;25.20;99.90;;;;;;5360755;26;19925;-68
2024/05/01 11:43:42;;;;;;;;;;;25.20;99.90;;;;;;5361755;26;19926;-68
2024/05/01 11:46:07;;;;;;;;;;;25.30;99.90;;;;;;5362504;26;20343;-67
2024/05/01 11:48:33;;;;;;;;;;;25.40;99.90;;;;;;5362010;26;19933;-67
2024/05/01 11:50:58;;;;;;;;;;;25.40;99.90;;;;;;5355121;26;19926;-68
2024/05/01 11:53:26;;;;;;;;;;;25.40;99.90;;;;;;5361714;26;20388;-68
2024/05/01 11:55:53;;;;;;;;;;;25.50;99.90;;;;;;5364970;26;19995;-68
2024/05/01 11:58:19;;;;;;;;;;;25.70;99.90;;;;;;5357614;26;19929;-68
2024/05/01 12:00:44;;;;;;;;;;;25.70;99.90;;;;;;5360776;26;20256;-68
2024/05/01 12:03:14;;;;;;;;;;;25.70;99.90;;;;;;5363330;26;20375;-69
2024/05/01 12:05:40;;;;;;;;;;;25.70;99.90;;;;;;5371295;26;19925;-67
2024/05/01 12:08:09;;;;;;;;;;;25.50;99.90;;;;;;5356753;26;20405;-68
2024/05/01 12:10:37;;;;;;;;;;;25.50;99.90;;;;;;5363503;26;20256;-67
2024/05/01 12:13:07;;;;;;;;;;;25.50;99.90;;;;;;5352410;26;19926;-68
2024/05/01 12:15:33;;;;;;;;;;;25.50;99.90;;;;;;5361769;26;19994;-68
2024/05/01 12:17:58;;;;;;;;;;;25.50;99.90;;;;;;5366502;26;19926;-68
2024/05/01 12:20:26;;;;;;;;;;;25.60;99.90;;;;;;5368280;26;19926;-67
2024/05/01 12:22:51;;;;;;;;;;;25.70;99.90;;;;;;5367642;26;19933;-69
2024/05/01 12:25:16;;;;;;;;;;;25.80;99.90;;;;;;5363077;26;20283;-68
2024/05/01 12:27:42;;;;;;;;;;;25.90;99.90;;;;;;5357864;26;19925;-68
2024/05/01 12:30:17;;;;;;;;;;;25.90;99.90;;;;;;5364087;26;19926;-68
2024/05/01 12:32:54;;;;;;;;;;;25.90;99.90;;;;;;5363419;26;19958;-67
2024/05/01 12:35:19;;;;;;;;;;;25.90;99.90;;;;;;5395927;26;19945;-68
2024/05/01 12:37:46;;;;;;;;;;;25.90;99.90;;;;;;5354707;26;20322;-67
2024/05/01 12:40:21;;;;;;;;;;;25.90;99.90;;;;;;5362267;26;19937;-68
2024/05/01 12:42:48;;;;;;;;;;;25.90;99.90;;;;;;5355295;26;19991;-67
2024/05/01 12:45:32;;;;;;;;;;;25.80;99.90;;;;;;5354361;26;20518;-67
2024/05/01 12:48:00;;;;;;;;;;;25.90;99.90;;;;;;5361311;26;20096;-67
2024/05/01 12:50:25;;;;;;;;;;;25.90;99.90;;;;;;5362718;26;20151;-67
2024/05/01 12:52:51;;;;;;;;;;;26.00;99.90;;;;;;5358406;26;19933;-68
2024/05/01 12:55:16;;;;;;;;;;;26.10;99.90;;;;;;5360812;26;19958;-67
2024/05/01 12:57:47;;;;;;;;;;;26.10;99.90;;;;;;5364310;26;19925;-67
2024/05/01 13:00:15;;;;;;;;;;;26.10;99.50;;;;;;5357578;26;19933;-67
2024/05/01 13:02:43;;;;;;;;;;;26.20;99.60;;;;;;5359455;26;19926;-67
2024/05/01 13:05:27;;;;;;;;;;;26.30;99.20;;;;;;5354914;26;19934;-67
2024/05/01 13:07:53;;;;;;;;;;;26.30;98.60;;;;;;5359039;26;19941;-67
2024/05/01 13:10:21;;;;;;;;;;;26.30;98.50;;;;;;5350764;26;19933;-67
2024/05/01 13:12:47;;;;;;;;;;;26.20;98.70;;;;;;5353803;26;20268;-67
2024/05/01 13:15:22;;;;;;;;;;;26.20;97.90;;;;;;5354299;26;19971;-67
2024/05/01 13:17:50;;;;;;;;;;;26.20;98.00;;;;;;5364542;26;19934;-67
2024/05/01 13:20:17;;;;;;;;;;;26.30;97.70;;;;;;5360662;26;20260;-67
2024/05/01 13:22:43;;;;;;;;;;;26.30;97.60;;;;;;5356739;26;21094;-69
2024/05/01 13:25:23;;;;;;;;;;;26.40;98.30;;;;;;5363019;26;19956;-68
2024/05/01 13:27:55;;;;;;;;;;;26.40;97.50;;;;;;5361952;26;20351;-67
2024/05/01 13:30:39;;;;;;;;;;;26.40;98.80;;;;;;5360620;26;19925;-67
2024/05/01 13:33:04;;;;;;;;;;;26.40;99.40;;;;;;5360227;26;19925;-67
2024/05/01 13:35:29;;;;;;;;;;;26.60;99.70;;;;;;5360158;26;20256;-67
2024/05/01 13:37:55;;;;;;;;;;;26.60;98.10;;;;;;5354261;26;19926;-67
2024/05/01 13:40:23;;;;;;;;;;;26.60;98.90;;;;;;5356618;26;19998;-68
2024/05/01 13:42:52;;;;;;;;;;;26.70;98.60;;;;;;5356390;26;20854;-67
2024/05/01 13:45:19;;;;;;;;;;;26.70;98.60;;;;;;5359166;26;20278;-67
2024/05/01 13:47:47;;;;;;;;;;;26.80;98.50;;;;;;5358808;26;19986;-67
2024/05/01 13:50:14;;;;;;;;;;;26.90;98.20;;;;;;5359885;26;20364;-67
2024/05/01 13:52:39;;;;;;;;;;;26.90;98.20;;;;;;5364101;26;19926;-67
2024/05/01 13:55:13;;;;;;;;;;;27.00;97.40;;;;;;5355044;26;20272;-67
2024/05/01 13:57:51;;;;;;;;;;;27.00;97.50;;;;;;5357426;26;19994;-67
2024/05/01 14:00:17;;;;;;;;;;;27.00;97.00;;;;;;5349594;26;20056;-68
2024/05/01 14:02:42;;;;;;;;;;;27.00;96.80;;;;;;5349127;26;20427;-68
2024/05/01 14:05:16;;;;;;;;;;;27.00;96.20;;;;;;5363849;26;19926;-68
2024/05/01 14:07:42;;;;;;;;;;;27.00;97.10;;;;;;5357412;26;19945;-68
2024/05/01 14:10:08;;;;;;;;;;;27.10;97.30;;;;;;5305960;26;1172063;-68
2024/05/01 14:12:33;;;;;;;;;;;27.10;97.00;;;;;;5359447;26;20301;-69